createdAt,value
2022-12-18T00:00:59.788Z,4.17
2022-12-18T00:03:50.370Z,4.11
2022-12-18T00:06:41.156Z,4.19
2022-12-18T00:09:39.298Z,4.17
2022-12-18T00:12:30.111Z,4.19
2022-12-18T00:15:19.863Z,4.26
2022-12-18T00:18:09.858Z,4.32
2022-12-18T00:21:02.474Z,4.42
2022-12-18T00:23:53.935Z,4.60
2022-12-18T00:26:43.460Z,4.66
2022-12-18T00:29:34.094Z,4.77
2022-12-18T00:32:23.367Z,4.88
2022-12-18T00:35:12.655Z,4.89
2022-12-18T00:38:01.973Z,4.87
2022-12-18T00:40:52.668Z,4.91
2022-12-18T00:43:41.916Z,4.83
2022-12-18T00:46:31.900Z,4.90
2022-12-18T00:49:22.827Z,4.88
2022-12-18T00:52:12.390Z,4.88
2022-12-18T00:55:06.082Z,4.86
2022-12-18T00:57:57.311Z,4.86
2022-12-18T01:00:46.708Z,4.93
2022-12-18T01:03:36.658Z,4.98
2022-12-18T01:06:26.141Z,5.04
2022-12-18T01:09:15.643Z,5.07
2022-12-18T01:12:05.297Z,5.16
2022-12-18T01:14:55.988Z,5.22
2022-12-18T01:17:45.586Z,5.24
2022-12-18T01:20:35.143Z,5.33
2022-12-18T01:23:24.664Z,5.39
2022-12-18T01:26:18.056Z,5.44
2022-12-18T01:29:07.651Z,5.56
2022-12-18T01:31:59.606Z,5.76
2022-12-18T01:34:49.097Z,5.86
2022-12-18T01:37:38.486Z,5.95
2022-12-18T01:40:27.792Z,6.08
2022-12-18T01:43:17.261Z,6.16
2022-12-18T01:46:06.823Z,6.33
2022-12-18T01:49:01.686Z,6.32
2022-12-18T01:51:51.353Z,6.33
2022-12-18T01:54:40.611Z,6.32
2022-12-18T01:57:30.992Z,6.24
2022-12-18T02:00:23.621Z,6.24
2022-12-18T02:03:14.453Z,6.26
2022-12-18T02:06:15.586Z,6.26
2022-12-18T02:09:15.186Z,6.26
2022-12-18T02:12:15.955Z,6.33
2022-12-18T02:15:15.210Z,6.35
2022-12-18T02:18:11.805Z,6.42
2022-12-18T02:21:10.804Z,6.35
2022-12-18T02:24:19.748Z,6.32
2022-12-18T02:27:13.076Z,6.34
2022-12-18T02:30:05.992Z,6.51
2022-12-18T02:32:57.083Z,6.76
2022-12-18T02:35:47.791Z,6.77
2022-12-18T02:38:39.181Z,6.77
2022-12-18T02:41:34.683Z,6.81
2022-12-18T02:44:26.840Z,6.85
2022-12-18T02:47:20.153Z,6.88
2022-12-18T02:50:19.202Z,6.88
2022-12-18T02:53:19.658Z,6.86
2022-12-18T02:56:16.218Z,6.99
2022-12-18T02:59:10.964Z,6.99
2022-12-18T03:02:19.866Z,6.95
2022-12-18T03:05:15.975Z,7.07
2022-12-18T03:08:11.319Z,7.03
2022-12-18T03:11:06.955Z,7.15
2022-12-18T03:13:59.665Z,7.14
2022-12-18T03:16:51.941Z,7.14
2022-12-18T03:19:45.965Z,7.18
2022-12-18T03:22:37.431Z,7.29
2022-12-18T03:25:30.068Z,7.24
2022-12-18T03:28:24.751Z,7.29
2022-12-18T03:31:25.452Z,7.28
2022-12-18T03:34:20.060Z,7.24
2022-12-18T03:37:12.087Z,7.47
2022-12-18T03:40:01.627Z,7.31
2022-12-18T03:42:57.687Z,7.42
2022-12-18T03:45:56.147Z,7.48
2022-12-18T03:48:52.668Z,7.42
2022-12-18T03:51:50.508Z,7.46
2022-12-18T03:54:43.562Z,7.46
2022-12-18T03:57:37.812Z,7.48
2022-12-18T04:00:28.930Z,7.43
2022-12-18T04:03:29.382Z,7.46
2022-12-18T04:06:20.753Z,7.40
2022-12-18T04:09:10.490Z,7.39
2022-12-18T04:12:04.604Z,7.51
2022-12-18T04:14:55.424Z,7.53
2022-12-18T04:17:51.379Z,7.52
2022-12-18T04:20:44.514Z,7.56
2022-12-18T04:23:34.717Z,7.63
2022-12-18T04:26:25.396Z,7.67
2022-12-18T04:29:26.708Z,7.68
2022-12-18T04:32:16.637Z,7.69
2022-12-18T04:35:11.693Z,7.24
2022-12-18T04:38:04.316Z,7.79
2022-12-18T04:40:53.663Z,7.74
2022-12-18T04:43:48.311Z,7.74
2022-12-18T04:46:39.326Z,7.74
2022-12-18T04:49:28.751Z,7.79
2022-12-18T04:52:18.234Z,7.76
2022-12-18T04:55:08.342Z,7.77
2022-12-18T04:57:57.746Z,7.84
2022-12-18T05:00:47.218Z,7.86
2022-12-18T05:03:39.398Z,7.87
2022-12-18T05:06:28.970Z,7.92
2022-12-18T05:09:18.219Z,7.93
2022-12-18T05:12:09.122Z,7.92
2022-12-18T05:14:58.335Z,7.90
2022-12-18T05:17:47.553Z,7.88
2022-12-18T05:20:38.197Z,7.85
2022-12-18T05:23:28.537Z,7.74
2022-12-18T05:26:20.526Z,7.76
2022-12-18T05:29:13.220Z,7.76
2022-12-18T05:32:03.361Z,7.76
2022-12-18T05:34:52.745Z,7.83
2022-12-18T05:37:43.680Z,7.78
2022-12-18T05:40:33.095Z,7.81
2022-12-18T05:43:24.536Z,7.70
2022-12-18T05:46:17.756Z,7.62
2022-12-18T05:49:07.059Z,7.67
2022-12-18T05:51:56.307Z,7.62
2022-12-18T05:54:47.050Z,7.66
2022-12-18T05:57:36.391Z,7.52
2022-12-18T06:00:25.674Z,7.59
2022-12-18T06:03:16.157Z,7.53
2022-12-18T06:06:06.412Z,7.59
2022-12-18T06:08:57.890Z,7.46
2022-12-18T06:11:48.628Z,7.47
2022-12-18T06:14:37.930Z,7.41
2022-12-18T06:17:31.245Z,7.39
2022-12-18T06:20:21.018Z,7.40
2022-12-18T06:23:10.811Z,7.43
2022-12-18T06:26:00.214Z,7.28
2022-12-18T06:28:51.221Z,7.31
2022-12-18T06:31:40.668Z,7.48
2022-12-18T06:34:30.252Z,7.27
2022-12-18T06:37:19.662Z,7.44
2022-12-18T06:40:10.337Z,7.37
2022-12-18T06:43:00.384Z,7.37
2022-12-18T06:45:53.877Z,7.35
2022-12-18T06:48:43.314Z,7.41
2022-12-18T06:51:32.683Z,7.40
2022-12-18T06:54:22.232Z,7.41
2022-12-18T06:57:11.888Z,7.32
2022-12-18T07:00:01.340Z,7.28
2022-12-18T07:02:52.128Z,7.25
2022-12-18T07:05:43.401Z,7.13
2022-12-18T07:08:33.284Z,7.12
2022-12-18T07:11:23.200Z,7.05
2022-12-18T07:14:12.467Z,7.11
2022-12-18T07:17:01.853Z,7.08
2022-12-18T07:19:52.553Z,6.90
2022-12-18T07:22:41.803Z,6.76
2022-12-18T07:25:31.163Z,6.93
2022-12-18T07:28:20.499Z,6.93
2022-12-18T07:31:13.216Z,6.85
2022-12-18T07:34:02.576Z,6.84
2022-12-18T07:36:53.574Z,6.72
2022-12-18T07:39:43.112Z,6.80
2022-12-18T07:42:36.378Z,6.81
2022-12-18T07:45:25.798Z,6.69
2022-12-18T07:48:15.185Z,6.71
2022-12-18T07:51:06.553Z,6.77
2022-12-18T07:53:57.223Z,6.72
2022-12-18T07:56:46.506Z,6.80
2022-12-18T07:59:35.871Z,6.89
2022-12-18T08:02:25.347Z,6.92
2022-12-18T08:05:15.217Z,6.96
2022-12-18T08:08:04.571Z,6.95
2022-12-18T08:10:55.334Z,6.83
2022-12-18T08:13:44.590Z,6.82
2022-12-18T08:16:34.034Z,6.90
2022-12-18T08:19:23.292Z,7.03
2022-12-18T08:22:12.667Z,7.06
2022-12-18T08:25:01.925Z,7.03
2022-12-18T08:27:52.611Z,7.00
2022-12-18T08:30:41.981Z,7.03
2022-12-18T08:33:31.330Z,7.05
2022-12-18T08:36:21.695Z,7.00
2022-12-18T08:39:11.383Z,7.05
2022-12-18T08:42:17.868Z,7.08
2022-12-18T08:45:10.924Z,7.11
2022-12-18T08:48:00.627Z,7.12
2022-12-18T08:50:57.427Z,7.13
2022-12-18T08:53:47.291Z,7.10
2022-12-18T08:56:37.053Z,7.14
2022-12-18T08:59:26.920Z,7.22
2022-12-18T09:02:19.218Z,7.28
2022-12-18T09:05:09.156Z,7.24
2022-12-18T09:07:58.684Z,7.21
2022-12-18T09:10:51.311Z,7.22
2022-12-18T09:13:41.158Z,7.25
2022-12-18T09:16:33.037Z,7.27
2022-12-18T09:19:23.869Z,7.39
2022-12-18T09:22:13.121Z,7.41
2022-12-18T09:25:02.441Z,7.49
2022-12-18T09:27:51.841Z,7.38
2022-12-18T09:30:42.022Z,7.41
2022-12-18T09:33:31.343Z,7.46
2022-12-18T09:36:22.069Z,7.53
2022-12-18T09:39:11.370Z,7.53
2022-12-18T09:42:01.458Z,7.55
2022-12-18T09:44:55.395Z,7.64
2022-12-18T09:47:47.621Z,7.59
2022-12-18T09:50:41.863Z,7.66
2022-12-18T09:53:37.439Z,7.63
2022-12-18T09:56:33.936Z,7.67
2022-12-18T09:59:31.925Z,7.66
2022-12-18T10:02:24.319Z,7.76
2022-12-18T10:05:18.079Z,7.81
2022-12-18T10:08:15.575Z,7.75
2022-12-18T10:11:29.979Z,7.97
2022-12-18T10:14:30.658Z,7.96
2022-12-18T10:17:37.315Z,7.88
2022-12-18T10:20:37.010Z,7.94
2022-12-18T10:23:33.113Z,7.93
2022-12-18T10:26:23.839Z,7.99
2022-12-18T10:29:15.825Z,7.93
2022-12-18T10:32:05.532Z,7.97
2022-12-18T10:35:00.801Z,7.98
2022-12-18T10:38:07.435Z,8.03
2022-12-18T10:40:59.938Z,7.89
2022-12-18T10:44:10.969Z,8.02
2022-12-18T10:47:11.948Z,7.94
2022-12-18T10:50:01.542Z,8.06
2022-12-18T10:52:59.606Z,7.95
2022-12-18T10:55:50.038Z,7.99
2022-12-18T10:58:41.367Z,8.01
2022-12-18T11:01:49.445Z,7.95
2022-12-18T11:04:54.335Z,8.00
2022-12-18T11:07:52.679Z,7.99
2022-12-18T11:10:42.264Z,8.02
2022-12-18T11:13:33.653Z,7.92
2022-12-18T11:16:23.347Z,8.07
2022-12-18T11:19:32.456Z,8.05
2022-12-18T11:22:25.545Z,8.04
2022-12-18T11:25:36.940Z,8.26
2022-12-18T11:28:40.709Z,8.22
2022-12-18T11:31:32.473Z,8.27
2022-12-18T11:34:31.453Z,8.28
2022-12-18T11:37:21.373Z,8.34
2022-12-18T11:40:19.942Z,8.27
2022-12-18T11:43:15.372Z,8.39
2022-12-18T11:46:17.736Z,8.47
2022-12-18T11:49:16.836Z,8.47
2022-12-18T11:52:17.768Z,8.63
2022-12-18T11:55:16.418Z,8.69
2022-12-18T11:58:15.221Z,8.81
2022-12-18T12:01:18.697Z,8.97
2022-12-18T12:05:01.189Z,9.19
2022-12-18T12:08:09.655Z,9.32
2022-12-18T12:11:09.747Z,9.43
2022-12-18T12:14:24.074Z,9.43
2022-12-18T12:17:25.315Z,9.64
2022-12-18T12:20:24.166Z,9.75
2022-12-18T12:23:27.453Z,9.79
2022-12-18T12:26:28.640Z,9.81
2022-12-18T12:29:37.133Z,9.89
2022-12-18T12:32:42.180Z,9.97
2022-12-18T12:35:46.540Z,9.93
2022-12-18T12:38:49.873Z,9.94
2022-12-18T12:42:01.259Z,10.13
2022-12-18T12:44:55.943Z,10.24
2022-12-18T12:47:49.190Z,10.25
2022-12-18T12:50:39.931Z,10.44
2022-12-18T12:53:36.793Z,10.47
2022-12-18T12:56:45.604Z,10.60
2022-12-18T12:59:50.101Z,10.67
2022-12-18T13:02:49.209Z,10.69
2022-12-18T13:05:48.472Z,10.67
2022-12-18T13:08:56.287Z,10.59
2022-12-18T13:12:06.738Z,10.72
2022-12-18T13:14:56.330Z,10.70
2022-12-18T13:17:45.739Z,10.77
2022-12-18T13:20:37.344Z,10.82
2022-12-18T13:23:35.324Z,10.81
2022-12-18T13:26:35.395Z,10.75
2022-12-18T13:29:46.951Z,10.90
2022-12-18T13:32:36.798Z,10.93
2022-12-18T13:35:53.885Z,10.99
2022-12-18T13:38:45.213Z,11.07
2022-12-18T13:41:34.618Z,11.15
2022-12-18T13:44:40.332Z,11.23
2022-12-18T13:47:39.444Z,11.25
2022-12-18T13:53:45.767Z,11.33
2022-12-18T13:56:36.461Z,11.34
2022-12-18T13:59:28.367Z,11.38
2022-12-18T14:02:22.958Z,11.44
2022-12-18T14:05:25.524Z,11.42
2022-12-18T14:08:17.484Z,11.46
2022-12-18T14:11:08.751Z,11.56
2022-12-18T14:14:17.420Z,11.60
2022-12-18T14:17:12.651Z,11.61
2022-12-18T14:20:03.141Z,11.62
2022-12-18T14:22:52.906Z,11.66
2022-12-18T14:25:48.090Z,11.66
2022-12-18T14:28:46.508Z,11.59
2022-12-18T14:31:37.227Z,11.60
2022-12-18T14:34:29.304Z,11.57
2022-12-18T14:37:23.581Z,11.70
2022-12-18T14:40:16.479Z,11.69
2022-12-18T14:43:05.857Z,11.74
2022-12-18T14:45:56.244Z,11.82
2022-12-18T14:48:50.536Z,11.81
2022-12-18T14:51:39.939Z,11.73
2022-12-18T14:54:31.449Z,11.69
2022-12-18T14:57:26.374Z,11.61
2022-12-18T15:00:21.902Z,11.63
2022-12-18T15:03:12.150Z,11.62
2022-12-18T15:06:19.649Z,11.65
2022-12-18T15:09:25.062Z,11.56
2022-12-18T15:12:34.995Z,11.61
2022-12-18T15:15:50.868Z,11.67
2022-12-18T15:18:46.226Z,11.72
2022-12-18T15:21:36.899Z,11.69
2022-12-18T15:24:33.390Z,11.55
2022-12-18T15:27:33.205Z,11.51
2022-12-18T15:30:26.456Z,11.57
2022-12-18T15:33:28.242Z,11.62
2022-12-18T15:36:21.637Z,11.64
2022-12-18T15:39:17.612Z,11.62
2022-12-18T15:42:24.303Z,11.59
2022-12-18T15:45:15.343Z,11.60
2022-12-18T15:48:15.866Z,11.65
2022-12-18T15:51:05.413Z,11.66
2022-12-18T15:53:58.497Z,11.62
2022-12-18T15:57:06.522Z,11.61
2022-12-18T15:59:59.457Z,11.65
2022-12-18T16:02:48.973Z,11.68
2022-12-18T16:05:38.941Z,11.64
2022-12-18T16:08:28.342Z,11.72
2022-12-18T16:11:39.911Z,11.69
2022-12-18T16:14:32.721Z,11.79
2022-12-18T16:17:22.105Z,11.94
2022-12-18T16:20:16.065Z,11.97
2022-12-18T16:23:05.424Z,12.09
2022-12-18T16:25:54.992Z,12.23
2022-12-18T16:28:48.405Z,12.22
2022-12-18T16:31:39.881Z,12.21
2022-12-18T16:34:34.863Z,12.20
2022-12-18T16:37:24.958Z,12.30
2022-12-18T16:40:18.031Z,12.38
2022-12-18T16:43:07.443Z,12.48
2022-12-18T16:45:59.668Z,12.52
2022-12-18T16:48:50.455Z,12.39
2022-12-18T16:51:40.108Z,12.60
2022-12-18T16:54:30.625Z,12.61
2022-12-18T16:57:25.275Z,12.73
2022-12-18T17:00:16.864Z,12.62
2022-12-18T17:03:06.482Z,12.56
2022-12-18T17:06:04.938Z,12.61
2022-12-18T17:09:01.420Z,12.75
2022-12-18T17:11:51.115Z,12.82
2022-12-18T17:14:40.822Z,12.84
2022-12-18T17:17:30.572Z,12.72
2022-12-18T17:20:20.342Z,12.78
2022-12-18T17:23:11.220Z,12.88
2022-12-18T17:26:01.462Z,12.83
2022-12-18T17:28:50.971Z,12.87
2022-12-18T17:31:40.418Z,12.88
2022-12-18T17:34:30.108Z,12.85
2022-12-18T17:37:20.231Z,12.87
2022-12-18T17:40:12.965Z,12.86
2022-12-18T17:43:02.402Z,13.00
2022-12-18T17:45:52.109Z,12.98
2022-12-18T17:48:41.900Z,12.93
2022-12-18T17:51:32.458Z,12.91
2022-12-18T17:54:22.043Z,12.85
2022-12-18T17:57:12.954Z,12.91
2022-12-18T18:00:02.458Z,12.80
2022-12-18T18:02:58.887Z,12.62
2022-12-18T18:05:48.611Z,12.72
2022-12-18T18:08:38.275Z,12.67
2022-12-18T18:11:44.942Z,12.63
2022-12-18T18:14:35.985Z,12.80
2022-12-18T18:17:25.678Z,12.80
2022-12-18T18:20:22.337Z,12.75
2022-12-18T18:23:12.063Z,12.87
2022-12-18T18:26:05.402Z,12.93
2022-12-18T18:28:56.294Z,13.01
2022-12-18T18:31:47.901Z,12.94
2022-12-18T18:34:37.703Z,12.99
2022-12-18T18:37:27.047Z,12.98
2022-12-18T18:40:16.775Z,12.87
2022-12-18T18:43:09.748Z,13.01
2022-12-18T18:46:00.446Z,13.09
2022-12-18T18:48:51.458Z,13.15
2022-12-18T18:51:41.236Z,13.04
2022-12-18T18:54:31.402Z,13.29
2022-12-18T18:57:21.687Z,13.27
2022-12-18T19:00:15.533Z,13.29
2022-12-18T19:03:05.248Z,13.19
2022-12-18T19:06:00.116Z,13.34
2022-12-18T19:08:49.547Z,13.41
2022-12-18T19:11:58.372Z,13.25
2022-12-18T19:14:48.124Z,13.35
2022-12-18T19:17:37.876Z,13.32
2022-12-18T19:20:27.544Z,13.24
2022-12-18T19:23:18.351Z,13.40
2022-12-18T19:26:27.378Z,13.36
2022-12-18T19:29:17.838Z,13.24
2022-12-18T19:32:07.265Z,13.36
2022-12-18T19:34:57.565Z,13.46
2022-12-18T19:37:47.107Z,13.35
2022-12-18T19:40:42.414Z,13.50
2022-12-18T19:43:32.067Z,13.47
2022-12-18T19:46:24.101Z,13.56
2022-12-18T19:49:17.577Z,13.65
2022-12-18T19:52:07.689Z,13.64
2022-12-18T19:54:57.402Z,13.66
2022-12-18T19:57:48.363Z,13.66
2022-12-18T20:00:37.894Z,13.61
2022-12-18T20:03:32.129Z,13.68
2022-12-18T20:06:26.903Z,13.65
2022-12-18T20:09:16.822Z,13.60
2022-12-18T20:12:07.861Z,13.63
2022-12-18T20:14:58.739Z,13.59
2022-12-18T20:17:48.105Z,13.59
2022-12-18T20:20:38.448Z,13.63
2022-12-18T20:23:29.272Z,13.61
2022-12-18T20:26:21.529Z,13.76
2022-12-18T20:29:11.220Z,13.76
2022-12-18T20:32:02.326Z,13.81
2022-12-18T20:34:51.913Z,13.84
2022-12-18T20:37:44.935Z,13.84
2022-12-18T20:40:38.131Z,13.73
2022-12-18T20:43:27.865Z,13.74
2022-12-18T20:46:18.750Z,13.61
2022-12-18T20:49:10.100Z,13.57
2022-12-18T20:52:02.848Z,13.62
2022-12-18T20:54:52.442Z,13.61
2022-12-18T20:57:41.981Z,13.62
2022-12-18T21:00:31.474Z,13.49
2022-12-18T21:03:20.942Z,13.57
2022-12-18T21:06:12.626Z,13.52
2022-12-18T21:09:02.093Z,13.58
2022-12-18T21:12:08.972Z,13.64
2022-12-18T21:15:02.668Z,13.61
2022-12-18T21:17:53.619Z,13.66
2022-12-18T21:20:43.025Z,13.74
2022-12-18T21:23:33.773Z,13.68
2022-12-18T21:26:25.735Z,13.68
2022-12-18T21:29:17.962Z,13.67
2022-12-18T21:32:09.305Z,13.61
2022-12-18T21:34:58.779Z,13.61
2022-12-18T21:37:48.181Z,13.65
2022-12-18T21:40:41.016Z,13.58
2022-12-18T21:43:56.679Z,13.63
2022-12-18T21:46:55.684Z,13.62
2022-12-18T21:49:48.382Z,13.64
2022-12-18T21:52:38.205Z,13.68
2022-12-18T21:55:27.751Z,13.66
2022-12-18T21:58:18.821Z,13.69
2022-12-18T22:01:08.303Z,13.69
2022-12-18T22:03:57.678Z,13.68
2022-12-18T22:06:48.141Z,13.64
2022-12-18T22:09:37.456Z,13.72
2022-12-18T22:12:43.660Z,13.70
2022-12-18T22:15:36.011Z,13.75
2022-12-18T22:18:25.579Z,13.78
2022-12-18T22:21:29.273Z,13.76
2022-12-18T22:24:21.485Z,13.77
2022-12-18T22:27:11.339Z,13.79
2022-12-18T22:30:05.437Z,13.79
2022-12-18T22:32:56.504Z,13.74
2022-12-18T22:35:45.859Z,13.73
2022-12-18T22:38:35.426Z,13.71
2022-12-18T22:41:24.702Z,13.77
2022-12-18T22:44:15.726Z,13.80
2022-12-18T22:47:07.723Z,13.79
2022-12-18T22:49:58.660Z,13.72
2022-12-18T22:52:48.033Z,13.70
2022-12-18T22:55:37.290Z,13.72
2022-12-18T22:58:26.627Z,13.62
2022-12-18T23:01:22.192Z,13.71
2022-12-18T23:04:12.882Z,13.82
2022-12-18T23:07:03.689Z,13.77
2022-12-18T23:10:00.748Z,13.85
2022-12-18T23:12:50.687Z,13.73
2022-12-18T23:15:43.283Z,13.84
2022-12-18T23:18:32.794Z,13.84
2022-12-18T23:21:23.262Z,13.85
2022-12-18T23:24:15.072Z,13.86
2022-12-18T23:27:05.744Z,13.86
2022-12-18T23:29:58.874Z,13.75
2022-12-18T23:32:48.484Z,13.87
2022-12-18T23:35:38.190Z,13.84
2022-12-18T23:38:27.727Z,13.82
2022-12-18T23:41:20.112Z,13.80
2022-12-18T23:44:11.351Z,13.84
2022-12-18T23:47:00.937Z,13.95
2022-12-18T23:49:50.714Z,14.06
2022-12-18T23:52:40.367Z,14.29
2022-12-18T23:55:29.818Z,14.48
2022-12-18T23:58:22.545Z,14.61
